createdAt,value
2023-02-28T00:01:13.837Z,6.30
2023-02-28T00:03:44.455Z,5.70
2023-02-28T00:06:12.374Z,5.03
2023-02-28T00:08:41.352Z,4.20
2023-02-28T00:11:11.142Z,5.07
2023-02-28T00:13:42.364Z,4.17
2023-02-28T00:16:12.244Z,5.57
2023-02-28T00:18:40.676Z,5.33
2023-02-28T00:21:10.816Z,4.70
2023-02-28T00:23:39.058Z,3.47
2023-02-28T00:26:07.105Z,4.97
2023-02-28T00:28:35.185Z,3.43
2023-02-28T00:31:03.032Z,6.73
2023-02-28T00:33:31.144Z,2.27
2023-02-28T00:36:11.692Z,2.27
2023-02-28T00:38:40.867Z,5.83
2023-02-28T00:41:09.505Z,3.27
2023-02-28T00:43:39.354Z,5.10
2023-02-28T00:46:07.781Z,6.60
2023-02-28T00:48:36.053Z,3.23
2023-02-28T00:51:03.984Z,3.23
2023-02-28T00:53:33.509Z,3.20
2023-02-28T00:56:01.551Z,6.03
2023-02-28T00:58:29.632Z,4.93
2023-02-28T01:01:01.184Z,6.00
2023-02-28T01:03:29.425Z,5.60
2023-02-28T01:05:57.294Z,3.93
2023-02-28T01:08:25.345Z,7.40
2023-02-28T01:10:54.562Z,3.77
2023-02-28T01:13:24.097Z,9.80
2023-02-28T01:15:55.075Z,2.67
2023-02-28T01:18:25.446Z,6.60
2023-02-28T01:20:53.633Z,3.63
2023-02-28T01:23:22.712Z,2.67
2023-02-28T01:25:50.650Z,5.13
2023-02-28T01:28:19.866Z,3.80
2023-02-28T01:30:51.006Z,3.93
2023-02-28T01:33:18.912Z,3.97
2023-02-28T01:35:46.770Z,4.40
2023-02-28T01:38:22.199Z,6.07
2023-02-28T01:40:50.824Z,5.30
2023-02-28T01:43:24.080Z,5.50
2023-02-28T01:45:52.366Z,6.60
2023-02-28T01:48:21.492Z,4.23
2023-02-28T01:50:50.270Z,5.20
2023-02-28T01:53:20.852Z,2.90
2023-02-28T01:55:52.245Z,6.10
2023-02-28T01:58:21.992Z,4.83
2023-02-28T02:00:49.861Z,3.90
2023-02-28T02:03:20.854Z,3.70
2023-02-28T02:05:49.060Z,5.20
2023-02-28T02:08:35.335Z,2.70
2023-02-28T02:11:05.535Z,4.93
2023-02-28T02:14:01.673Z,3.33
2023-02-28T02:16:43.541Z,3.57
2023-02-28T02:19:30.861Z,4.10
2023-02-28T02:22:20.860Z,4.30
2023-02-28T02:25:03.791Z,5.83
2023-02-28T02:27:50.273Z,4.90
2023-02-28T02:30:46.376Z,4.70
2023-02-28T02:33:38.252Z,2.30
2023-02-28T02:36:11.500Z,6.83
2023-02-28T02:38:44.269Z,6.67
2023-02-28T02:41:17.383Z,6.80
2023-02-28T02:43:51.448Z,2.97
2023-02-28T02:46:22.810Z,2.47
2023-02-28T02:48:52.704Z,4.93
2023-02-28T02:51:24.865Z,4.83
2023-02-28T02:53:56.616Z,4.27
2023-02-28T02:56:28.197Z,4.77
2023-02-28T02:58:58.857Z,3.83
2023-02-28T03:01:29.779Z,8.43
2023-02-28T03:03:56.825Z,6.90
2023-02-28T03:06:26.200Z,5.63
2023-02-28T03:08:54.066Z,3.63
2023-02-28T03:11:22.534Z,4.33
2023-02-28T03:14:02.547Z,6.57
2023-02-28T03:16:41.226Z,5.70
2023-02-28T03:19:31.521Z,3.53
2023-02-28T03:22:16.072Z,7.40
2023-02-28T03:24:51.457Z,4.67
2023-02-28T03:27:25.575Z,6.17
2023-02-28T03:30:00.655Z,8.40
2023-02-28T03:32:31.905Z,3.97
2023-02-28T03:35:06.912Z,5.47
2023-02-28T03:37:39.047Z,6.20
2023-02-28T03:40:13.624Z,6.37
2023-02-28T03:42:45.371Z,5.43
2023-02-28T03:45:16.939Z,4.13
2023-02-28T03:47:49.937Z,3.90
2023-02-28T03:50:22.383Z,5.33
2023-02-28T03:52:55.460Z,4.13
2023-02-28T03:55:23.764Z,6.47
2023-02-28T03:57:58.895Z,5.33
2023-02-28T04:00:33.771Z,3.23
2023-02-28T04:03:01.663Z,6.63
2023-02-28T04:05:30.452Z,7.20
2023-02-28T04:08:07.592Z,7.60
2023-02-28T04:10:35.553Z,4.73
2023-02-28T04:13:03.318Z,4.83
2023-02-28T04:15:31.070Z,4.40
2023-02-28T04:17:59.078Z,5.50
2023-02-28T04:20:26.894Z,7.37
2023-02-28T04:22:54.832Z,4.97
2023-02-28T04:25:23.912Z,7.57
2023-02-28T04:27:51.676Z,5.17
2023-02-28T04:30:19.549Z,5.43
2023-02-28T04:32:47.313Z,4.50
2023-02-28T04:35:15.172Z,6.43
2023-02-28T04:37:42.982Z,7.27
2023-02-28T04:40:12.025Z,5.77
2023-02-28T04:42:41.142Z,7.63
2023-02-28T04:45:11.125Z,6.93
2023-02-28T04:47:38.910Z,7.07
2023-02-28T04:50:07.439Z,4.97
2023-02-28T04:52:35.208Z,4.20
2023-02-28T04:55:03.051Z,6.07
2023-02-28T04:57:30.969Z,5.83
2023-02-28T05:00:00.105Z,5.83
2023-02-28T05:02:27.962Z,6.97
2023-02-28T05:04:55.871Z,6.60
2023-02-28T05:07:23.660Z,7.63
2023-02-28T05:09:51.410Z,6.30
2023-02-28T05:12:19.160Z,9.33
2023-02-28T05:14:46.965Z,5.17
2023-02-28T05:17:16.068Z,5.90
2023-02-28T05:19:43.803Z,4.73
2023-02-28T05:22:16.619Z,7.47
2023-02-28T05:24:44.773Z,6.47
2023-02-28T05:27:12.826Z,7.17
2023-02-28T05:29:44.177Z,7.07
2023-02-28T05:32:12.639Z,8.20
2023-02-28T05:34:42.617Z,7.20
2023-02-28T05:37:13.998Z,7.23
2023-02-28T05:39:41.904Z,7.00
2023-02-28T05:42:10.114Z,12.67
2023-02-28T05:44:38.165Z,6.03
2023-02-28T05:47:06.018Z,7.93
2023-02-28T05:49:33.780Z,11.90
2023-02-28T05:52:02.878Z,7.13
2023-02-28T05:54:30.631Z,8.17
2023-02-28T05:56:58.621Z,8.20
2023-02-28T05:59:26.474Z,8.27
2023-02-28T06:01:54.777Z,7.00
2023-02-28T06:04:31.447Z,9.50
2023-02-28T06:07:02.588Z,8.03
2023-02-28T06:09:30.545Z,7.90
2023-02-28T06:12:00.181Z,5.27
2023-02-28T06:14:28.327Z,5.07
2023-02-28T06:16:58.816Z,9.60
2023-02-28T06:19:27.077Z,9.70
2023-02-28T06:21:55.975Z,9.83
2023-02-28T06:24:28.849Z,8.93
2023-02-28T06:26:56.769Z,7.07
2023-02-28T06:29:24.502Z,7.30
2023-02-28T06:31:52.335Z,7.27
2023-02-28T06:34:20.217Z,10.20
2023-02-28T06:36:47.968Z,9.13
2023-02-28T06:39:15.837Z,8.73
2023-02-28T06:41:54.594Z,12.67
2023-02-28T06:44:24.870Z,9.90
2023-02-28T06:46:52.951Z,8.60
2023-02-28T06:49:20.712Z,10.77
2023-02-28T06:51:48.470Z,7.17
2023-02-28T06:54:16.241Z,12.27
2023-02-28T06:56:45.453Z,10.53
2023-02-28T06:59:13.224Z,10.00
2023-02-28T07:01:41.083Z,11.30
2023-02-28T07:04:09.114Z,9.73
2023-02-28T07:06:37.096Z,12.60
2023-02-28T07:09:06.069Z,10.70
2023-02-28T07:11:33.912Z,10.03
2023-02-28T07:14:03.011Z,10.63
2023-02-28T07:16:30.851Z,9.53
2023-02-28T07:18:58.620Z,8.20
2023-02-28T07:21:26.704Z,10.07
2023-02-28T07:23:54.557Z,8.00
2023-02-28T07:26:22.690Z,11.63
2023-02-28T07:28:51.172Z,8.70
2023-02-28T07:31:20.646Z,9.40
2023-02-28T07:33:48.493Z,13.07
2023-02-28T07:36:19.432Z,11.57
2023-02-28T07:38:50.735Z,12.67
2023-02-28T07:41:19.998Z,9.40
2023-02-28T07:43:48.379Z,9.87
2023-02-28T07:46:18.100Z,8.77
2023-02-28T07:48:47.345Z,10.20
2023-02-28T07:51:15.166Z,10.57
2023-02-28T07:53:43.051Z,11.60
2023-02-28T07:56:11.612Z,11.67
2023-02-28T07:58:39.393Z,10.80
2023-02-28T08:01:08.428Z,11.57
2023-02-28T08:03:36.325Z,9.83
2023-02-28T08:06:05.749Z,13.67
2023-02-28T08:08:33.543Z,14.93
2023-02-28T08:11:02.415Z,16.30
2023-02-28T08:13:31.278Z,12.60
2023-02-28T08:15:59.090Z,13.87
2023-02-28T08:18:26.916Z,12.27
2023-02-28T08:20:54.671Z,10.90
2023-02-28T08:23:23.802Z,11.60
2023-02-28T08:25:55.621Z,10.57
2023-02-28T08:28:24.981Z,7.93
2023-02-28T08:30:53.818Z,12.03
2023-02-28T08:33:21.717Z,11.20
2023-02-28T08:35:49.652Z,9.17
2023-02-28T08:38:17.414Z,10.40
2023-02-28T08:40:46.509Z,11.27
2023-02-28T08:43:14.574Z,9.73
2023-02-28T08:45:42.456Z,12.13
2023-02-28T08:48:10.246Z,12.23
2023-02-28T08:50:37.986Z,10.23
2023-02-28T08:53:05.767Z,14.03
2023-02-28T08:55:33.549Z,14.27
2023-02-28T08:58:03.090Z,14.43
2023-02-28T09:00:30.935Z,6.97
2023-02-28T09:02:58.697Z,16.23
2023-02-28T09:05:26.737Z,10.00
2023-02-28T09:07:54.534Z,12.77
2023-02-28T09:10:22.288Z,11.23
2023-02-28T09:12:50.114Z,9.90
2023-02-28T09:15:19.482Z,10.47
2023-02-28T09:17:48.598Z,11.00
2023-02-28T09:20:16.664Z,15.67
2023-02-28T09:22:44.452Z,13.63
2023-02-28T09:25:12.201Z,11.80
2023-02-28T09:27:41.830Z,9.27
2023-02-28T09:30:11.232Z,10.33
2023-02-28T09:32:40.584Z,8.87
2023-02-28T09:35:14.140Z,12.60
2023-02-28T09:37:41.966Z,13.77
2023-02-28T09:40:11.945Z,10.90
2023-02-28T09:42:40.734Z,11.67
2023-02-28T09:45:16.718Z,11.23
2023-02-28T09:47:49.484Z,10.83
2023-02-28T09:50:25.355Z,14.30
2023-02-28T09:52:53.179Z,11.97
2023-02-28T09:55:24.299Z,11.83
2023-02-28T09:57:53.561Z,10.60
2023-02-28T10:00:26.526Z,9.77
2023-02-28T10:03:08.393Z,8.03
2023-02-28T10:05:43.364Z,13.67
2023-02-28T10:08:16.973Z,11.23
2023-02-28T10:10:47.735Z,9.30
2023-02-28T10:13:23.835Z,12.63
2023-02-28T10:15:56.640Z,7.90
2023-02-28T10:18:31.566Z,11.97
2023-02-28T10:20:59.733Z,11.00
2023-02-28T10:23:30.769Z,11.37
2023-02-28T10:26:02.305Z,14.83
2023-02-28T10:28:32.877Z,11.63
2023-02-28T10:31:01.024Z,8.77
2023-02-28T10:33:32.997Z,11.80
2023-02-28T10:36:01.181Z,12.30
2023-02-28T10:38:33.592Z,11.63
2023-02-28T10:41:09.619Z,9.10
2023-02-28T10:43:38.622Z,12.50
2023-02-28T10:46:15.761Z,9.17
2023-02-28T10:48:50.880Z,12.03
2023-02-28T10:51:21.059Z,13.30
2023-02-28T10:54:06.675Z,13.70
2023-02-28T10:56:35.249Z,10.90
2023-02-28T10:59:22.436Z,14.10
2023-02-28T11:01:53.016Z,12.43
2023-02-28T11:04:38.785Z,9.20
2023-02-28T11:07:09.174Z,10.83
2023-02-28T11:09:40.501Z,13.27
2023-02-28T11:12:10.684Z,10.17
2023-02-28T11:14:49.773Z,13.83
2023-02-28T11:17:23.170Z,12.23
2023-02-28T11:19:57.124Z,11.23
2023-02-28T11:22:29.531Z,12.37
2023-02-28T11:25:00.274Z,10.93
2023-02-28T11:27:47.519Z,11.27
2023-02-28T11:30:34.764Z,12.27
2023-02-28T11:33:03.757Z,12.57
2023-02-28T11:35:38.242Z,12.23
2023-02-28T11:38:09.926Z,12.70
2023-02-28T11:40:45.815Z,10.47
2023-02-28T11:43:29.418Z,12.97
2023-02-28T11:46:17.492Z,13.90
2023-02-28T11:48:56.822Z,12.37
2023-02-28T11:51:32.353Z,9.63
2023-02-28T11:54:25.942Z,9.53
2023-02-28T11:56:59.704Z,13.53
2023-02-28T11:59:49.884Z,12.67
2023-02-28T12:02:26.191Z,10.53
2023-02-28T12:05:14.805Z,10.17
2023-02-28T12:07:54.222Z,8.73
2023-02-28T12:10:27.075Z,10.03
2023-02-28T12:13:10.100Z,10.30
2023-02-28T12:16:09.566Z,12.17
2023-02-28T12:19:03.322Z,13.67
2023-02-28T12:21:41.063Z,13.80
2023-02-28T12:24:33.303Z,19.97
2023-02-28T12:27:04.661Z,10.83
2023-02-28T12:29:36.047Z,11.73
2023-02-28T12:32:10.307Z,14.17
2023-02-28T12:34:43.111Z,16.60
2023-02-28T12:37:16.896Z,10.53
2023-02-28T12:39:50.923Z,11.10
2023-02-28T12:42:25.971Z,11.40
2023-02-28T12:44:58.678Z,11.77
2023-02-28T12:47:26.459Z,14.13
2023-02-28T12:49:59.217Z,14.40
2023-02-28T12:52:36.682Z,11.87
2023-02-28T12:55:15.320Z,12.40
2023-02-28T12:57:49.628Z,13.77
2023-02-28T13:00:19.894Z,7.37
2023-02-28T13:03:21.128Z,12.37
2023-02-28T13:06:07.207Z,12.50
2023-02-28T13:09:05.467Z,7.83
2023-02-28T13:11:40.795Z,9.43
2023-02-28T13:14:26.046Z,9.10
2023-02-28T13:17:00.023Z,13.30
2023-02-28T13:19:30.289Z,10.17
2023-02-28T13:21:59.606Z,11.73
2023-02-28T13:24:47.444Z,12.37
2023-02-28T13:27:40.219Z,8.93
2023-02-28T13:30:50.674Z,11.90
2023-02-28T13:33:27.115Z,10.87
2023-02-28T13:36:11.210Z,9.70
2023-02-28T13:38:42.550Z,9.03
2023-02-28T13:41:53.224Z,13.87
2023-02-28T13:44:24.945Z,9.40
2023-02-28T13:47:29.651Z,10.90
2023-02-28T13:50:20.585Z,11.23
2023-02-28T13:52:56.004Z,11.53
2023-02-28T13:55:31.150Z,12.93
2023-02-28T13:58:20.502Z,12.97
2023-02-28T14:01:09.516Z,10.80
2023-02-28T14:04:00.911Z,12.23
2023-02-28T14:06:31.132Z,12.33
2023-02-28T14:09:01.585Z,12.80
2023-02-28T14:11:33.227Z,11.97
2023-02-28T14:14:02.350Z,11.27
2023-02-28T14:16:41.264Z,13.80
2023-02-28T14:19:15.145Z,12.07
2023-02-28T14:21:58.212Z,11.87
2023-02-28T14:25:02.059Z,9.90
2023-02-28T14:27:45.331Z,10.83
2023-02-28T14:30:35.761Z,15.93
2023-02-28T14:33:16.937Z,12.47
2023-02-28T14:35:58.252Z,10.87
2023-02-28T14:38:29.262Z,10.63
2023-02-28T14:41:00.350Z,12.37
2023-02-28T14:43:29.615Z,13.03
2023-02-28T14:46:00.123Z,11.50
2023-02-28T14:48:30.333Z,14.57
2023-02-28T14:51:00.529Z,13.77
2023-02-28T14:53:32.288Z,12.60
2023-02-28T14:56:01.207Z,13.33
2023-02-28T14:58:31.033Z,12.63
2023-02-28T15:01:01.343Z,11.57
2023-02-28T15:03:35.232Z,11.60
2023-02-28T15:06:05.087Z,11.33
2023-02-28T15:08:36.860Z,13.60
2023-02-28T15:11:07.030Z,12.97
2023-02-28T15:13:39.552Z,11.70
2023-02-28T15:16:12.344Z,9.70
2023-02-28T15:18:49.174Z,11.50
2023-02-28T15:21:19.599Z,10.00
2023-02-28T15:23:51.766Z,10.80
2023-02-28T15:26:22.879Z,12.97
2023-02-28T15:28:53.261Z,11.53
2023-02-28T15:31:25.565Z,11.87
2023-02-28T15:34:00.082Z,10.13
2023-02-28T15:36:32.997Z,12.40
2023-02-28T15:39:10.715Z,14.33
2023-02-28T15:41:43.410Z,10.07
2023-02-28T15:44:30.654Z,12.37
2023-02-28T15:47:04.623Z,10.47
2023-02-28T15:49:44.947Z,17.40
2023-02-28T15:52:17.647Z,13.40
2023-02-28T15:54:46.477Z,14.07
2023-02-28T15:57:17.493Z,11.67
2023-02-28T15:59:52.762Z,10.47
2023-02-28T16:02:22.283Z,12.23
2023-02-28T16:05:03.017Z,14.03
2023-02-28T16:07:31.277Z,12.57
2023-02-28T16:09:59.152Z,14.30
2023-02-28T16:12:29.578Z,12.60
2023-02-28T16:14:59.670Z,15.33
2023-02-28T16:17:30.890Z,11.53
2023-02-28T16:19:59.491Z,12.70
2023-02-28T16:22:28.694Z,13.57
2023-02-28T16:24:56.508Z,13.80
2023-02-28T16:27:28.780Z,13.03
2023-02-28T16:29:56.581Z,9.63
2023-02-28T16:32:24.646Z,10.47
2023-02-28T16:34:52.543Z,16.23
2023-02-28T16:37:20.459Z,11.17
2023-02-28T16:39:51.010Z,12.97
2023-02-28T16:42:25.798Z,11.23
2023-02-28T16:44:54.489Z,8.60
2023-02-28T16:47:22.549Z,13.37
2023-02-28T16:49:50.321Z,11.73
2023-02-28T16:52:18.073Z,10.27
2023-02-28T16:54:45.840Z,13.67
2023-02-28T16:57:21.154Z,11.73
2023-02-28T16:59:49.514Z,12.37
2023-02-28T17:02:20.257Z,14.53
2023-02-28T17:04:48.845Z,13.53
2023-02-28T17:07:18.167Z,13.37
2023-02-28T17:09:46.972Z,11.47
2023-02-28T17:12:16.339Z,13.67
2023-02-28T17:14:44.205Z,12.83
2023-02-28T17:17:19.040Z,11.80
2023-02-28T17:19:46.823Z,12.83
2023-02-28T17:22:14.695Z,11.80
2023-02-28T17:24:42.465Z,12.93
2023-02-28T17:27:13.403Z,13.00
2023-02-28T17:29:42.645Z,13.23
2023-02-28T17:32:17.971Z,15.50
2023-02-28T17:34:46.816Z,17.53
2023-02-28T17:37:14.954Z,15.73
2023-02-28T17:39:42.751Z,15.93
2023-02-28T17:42:10.507Z,14.80
2023-02-28T17:44:38.603Z,15.70
2023-02-28T17:47:07.805Z,13.97
2023-02-28T17:49:35.609Z,19.40
2023-02-28T17:52:03.404Z,16.17
2023-02-28T17:54:31.166Z,16.30
2023-02-28T17:56:58.953Z,17.97
2023-02-28T17:59:26.705Z,17.30
2023-02-28T18:01:54.465Z,15.70
2023-02-28T18:04:23.589Z,15.53
2023-02-28T18:06:52.269Z,18.63
2023-02-28T18:09:22.634Z,19.50
2023-02-28T18:11:50.941Z,16.83
2023-02-28T18:14:20.198Z,16.87
2023-02-28T18:16:48.424Z,17.83
2023-02-28T18:19:17.669Z,18.10
2023-02-28T18:21:48.503Z,15.70
2023-02-28T18:24:17.875Z,17.37
2023-02-28T18:26:45.943Z,23.30
2023-02-28T18:29:18.607Z,16.17
2023-02-28T18:31:46.697Z,16.70
2023-02-28T18:34:15.086Z,16.83
2023-02-28T18:36:43.336Z,19.57
2023-02-28T18:39:12.436Z,13.60
2023-02-28T18:41:40.315Z,13.17
2023-02-28T18:44:19.091Z,13.83
2023-02-28T18:46:48.174Z,12.73
2023-02-28T18:49:16.056Z,13.13
2023-02-28T18:51:45.326Z,12.40
2023-02-28T18:54:15.219Z,14.10
2023-02-28T18:56:43.432Z,12.93
2023-02-28T18:59:11.886Z,16.87
2023-02-28T19:01:40.000Z,17.80
2023-02-28T19:04:07.942Z,16.30
2023-02-28T19:06:38.008Z,13.47
2023-02-28T19:09:06.555Z,16.33
2023-02-28T19:11:36.813Z,15.73
2023-02-28T19:14:04.874Z,15.43
2023-02-28T19:16:33.009Z,18.97
2023-02-28T19:19:00.937Z,15.87
2023-02-28T19:21:28.756Z,17.60
2023-02-28T19:23:56.572Z,16.53
2023-02-28T19:26:26.030Z,13.90
2023-02-28T19:28:55.161Z,18.60
2023-02-28T19:31:24.988Z,19.80
2023-02-28T19:33:53.668Z,17.93
2023-02-28T19:36:22.847Z,19.90
2023-02-28T19:38:51.322Z,23.90
2023-02-28T19:41:19.724Z,19.07
2023-02-28T19:43:48.170Z,21.17
2023-02-28T19:46:18.857Z,19.23
2023-02-28T19:48:48.722Z,16.43
2023-02-28T19:53:50.353Z,18.80
2023-02-28T19:56:18.097Z,20.20
2023-02-28T19:58:45.862Z,24.43
2023-02-28T20:01:15.294Z,18.60
2023-02-28T20:03:47.781Z,22.70
2023-02-28T20:06:15.628Z,21.67
2023-02-28T20:08:44.021Z,23.47
2023-02-28T20:11:13.809Z,22.07
2023-02-28T20:13:41.787Z,17.67
2023-02-28T20:16:12.033Z,20.17
2023-02-28T20:18:41.004Z,19.50
2023-02-28T20:21:10.989Z,27.37
2023-02-28T20:23:39.009Z,28.77
2023-02-28T20:26:07.093Z,27.77
2023-02-28T20:28:34.891Z,24.73
2023-02-28T20:31:03.100Z,19.70
2023-02-28T20:33:30.871Z,22.20
2023-02-28T20:36:02.273Z,20.03
2023-02-28T20:38:31.481Z,17.07
2023-02-28T20:41:00.916Z,17.13
2023-02-28T20:43:29.645Z,27.77
2023-02-28T20:46:01.640Z,21.93
2023-02-28T20:48:30.493Z,17.33
2023-02-28T20:51:00.355Z,18.40
2023-02-28T20:53:29.550Z,19.07
2023-02-28T20:56:00.431Z,21.13
2023-02-28T20:58:31.295Z,21.87
2023-02-28T21:01:02.961Z,18.37
2023-02-28T21:03:31.024Z,19.07
2023-02-28T21:06:03.037Z,22.23
2023-02-28T21:08:30.969Z,19.13
2023-02-28T21:11:00.113Z,19.33
2023-02-28T21:13:28.070Z,17.50
2023-02-28T21:15:55.964Z,19.93
2023-02-28T21:18:23.757Z,17.73
2023-02-28T21:20:51.561Z,21.90
2023-02-28T21:23:19.412Z,23.53
2023-02-28T21:25:47.188Z,21.77
2023-02-28T21:28:16.659Z,17.73
2023-02-28T21:30:44.421Z,17.13
2023-02-28T21:33:12.320Z,22.00
2023-02-28T21:35:40.106Z,18.10
2023-02-28T21:38:07.935Z,21.37
2023-02-28T21:40:35.901Z,22.50
2023-02-28T21:43:03.639Z,24.00
2023-02-28T21:45:34.548Z,28.90
2023-02-28T21:48:02.381Z,76.83
2023-02-28T21:50:30.196Z,38.20
2023-02-28T21:52:57.936Z,30.47
2023-02-28T21:55:25.856Z,23.43
2023-02-28T21:57:53.599Z,22.23
2023-02-28T22:00:22.512Z,21.03
2023-02-28T22:02:51.637Z,26.37
2023-02-28T22:05:19.397Z,23.53
2023-02-28T22:07:47.136Z,25.90
2023-02-28T22:10:14.951Z,28.10
2023-02-28T22:12:42.713Z,20.10
2023-02-28T22:15:11.126Z,24.17
2023-02-28T22:17:39.037Z,25.63
2023-02-28T22:20:09.169Z,27.80
2023-02-28T22:22:37.063Z,25.67
2023-02-28T22:25:05.469Z,26.67
2023-02-28T22:27:34.489Z,22.77
2023-02-28T22:30:02.280Z,16.77
2023-02-28T22:32:30.207Z,20.80
2023-02-28T22:34:58.203Z,18.63
2023-02-28T22:37:27.357Z,19.57
2023-02-28T22:39:55.124Z,22.93
2023-02-28T22:42:24.811Z,18.67
2023-02-28T22:44:52.905Z,22.40
2023-02-28T22:47:22.065Z,22.63
2023-02-28T22:49:52.372Z,20.70
2023-02-28T22:52:20.142Z,24.10
2023-02-28T22:54:53.215Z,19.93
2023-02-28T22:57:21.295Z,21.70
2023-02-28T22:59:49.064Z,20.53
2023-02-28T23:02:16.945Z,19.77
2023-02-28T23:04:44.722Z,21.73
2023-02-28T23:07:17.815Z,24.67
2023-02-28T23:09:45.592Z,19.87
2023-02-28T23:12:14.783Z,20.70
2023-02-28T23:14:42.599Z,26.07
2023-02-28T23:17:10.628Z,18.33
2023-02-28T23:19:38.469Z,23.87
2023-02-28T23:22:06.600Z,20.03
2023-02-28T23:24:44.174Z,21.23
2023-02-28T23:27:13.800Z,26.00
2023-02-28T23:29:42.135Z,19.53
2023-02-28T23:32:10.036Z,21.77
2023-02-28T23:34:37.930Z,23.83
2023-02-28T23:37:05.701Z,20.97
2023-02-28T23:39:33.546Z,22.03
2023-02-28T23:42:01.783Z,16.07
2023-02-28T23:44:31.757Z,18.13
2023-02-28T23:46:59.554Z,17.93
2023-02-28T23:49:27.380Z,20.20
2023-02-28T23:51:55.763Z,17.30
2023-02-28T23:54:23.883Z,18.57
2023-02-28T23:56:51.672Z,18.47
2023-02-28T23:59:19.737Z,17.47
